sensor_id;sensor_type;location;lat;lon;timestamp;P1;durP1;ratioP1;P2;durP2;ratioP2
12776;SDS011;6452;41.572;23.732;2023-02-15T00:01:54;33.45;;;22.45;;
12776;SDS011;6452;41.572;23.732;2023-02-15T00:04:22;37.53;;;23.58;;
12776;SDS011;6452;41.572;23.732;2023-02-15T00:07:09;37.35;;;25.88;;
12776;SDS011;6452;41.572;23.732;2023-02-15T00:09:36;41.08;;;25.40;;
12776;SDS011;6452;41.572;23.732;2023-02-15T00:12:03;38.95;;;24.92;;
12776;SDS011;6452;41.572;23.732;2023-02-15T00:14:29;39.83;;;26.15;;
12776;SDS011;6452;41.572;23.732;2023-02-15T00:16:56;38.58;;;25.95;;
12776;SDS011;6452;41.572;23.732;2023-02-15T00:19:25;41.55;;;26.35;;
12776;SDS011;6452;41.572;23.732;2023-02-15T00:21:51;39.50;;;24.23;;
12776;SDS011;6452;41.572;23.732;2023-02-15T00:24:17;38.53;;;23.70;;
12776;SDS011;6452;41.572;23.732;2023-02-15T00:26:44;35.83;;;22.17;;
12776;SDS011;6452;41.572;23.732;2023-02-15T00:29:12;31.52;;;22.35;;
12776;SDS011;6452;41.572;23.732;2023-02-15T00:31:40;34.78;;;22.05;;
12776;SDS011;6452;41.572;23.732;2023-02-15T00:34:18;30.92;;;20.85;;
12776;SDS011;6452;41.572;23.732;2023-02-15T00:36:49;32.97;;;21.42;;
12776;SDS011;6452;41.572;23.732;2023-02-15T00:39:19;35.80;;;22.88;;
12776;SDS011;6452;41.572;23.732;2023-02-15T00:41:46;34.50;;;23.48;;
12776;SDS011;6452;41.572;23.732;2023-02-15T00:44:13;35.58;;;23.60;;
12776;SDS011;6452;41.572;23.732;2023-02-15T00:46:39;32.58;;;22.00;;
12776;SDS011;6452;41.572;23.732;2023-02-15T00:49:06;30.05;;;22.02;;
12776;SDS011;6452;41.572;23.732;2023-02-15T00:51:32;38.38;;;22.10;;
12776;SDS011;6452;41.572;23.732;2023-02-15T00:53:59;34.15;;;22.38;;
12776;SDS011;6452;41.572;23.732;2023-02-15T00:56:25;36.55;;;23.75;;
12776;SDS011;6452;41.572;23.732;2023-02-15T00:58:53;31.48;;;21.92;;
12776;SDS011;6452;41.572;23.732;2023-02-15T01:01:20;29.75;;;19.77;;
12776;SDS011;6452;41.572;23.732;2023-02-15T01:03:47;25.58;;;17.63;;
12776;SDS011;6452;41.572;23.732;2023-02-15T01:06:14;26.70;;;17.73;;
12776;SDS011;6452;41.572;23.732;2023-02-15T01:08:41;23.52;;;16.65;;
12776;SDS011;6452;41.572;23.732;2023-02-15T01:11:13;25.30;;;16.83;;
12776;SDS011;6452;41.572;23.732;2023-02-15T01:13:54;24.73;;;17.92;;
12776;SDS011;6452;41.572;23.732;2023-02-15T01:16:36;33.33;;;21.98;;
12776;SDS011;6452;41.572;23.732;2023-02-15T01:19:03;33.38;;;21.92;;
12776;SDS011;6452;41.572;23.732;2023-02-15T01:21:30;35.42;;;22.98;;
12776;SDS011;6452;41.572;23.732;2023-02-15T01:24:00;33.58;;;22.77;;
12776;SDS011;6452;41.572;23.732;2023-02-15T01:26:27;29.98;;;20.88;;
12776;SDS011;6452;41.572;23.732;2023-02-15T01:28:54;27.80;;;18.65;;
12776;SDS011;6452;41.572;23.732;2023-02-15T01:31:23;32.55;;;22.20;;
12776;SDS011;6452;41.572;23.732;2023-02-15T01:33:53;29.58;;;20.33;;
12776;SDS011;6452;41.572;23.732;2023-02-15T01:36:19;29.75;;;21.40;;
12776;SDS011;6452;41.572;23.732;2023-02-15T01:42:28;31.95;;;21.10;;
12776;SDS011;6452;41.572;23.732;2023-02-15T01:44:56;34.58;;;22.25;;
12776;SDS011;6452;41.572;23.732;2023-02-15T01:52:45;31.00;;;21.08;;
12776;SDS011;6452;41.572;23.732;2023-02-15T01:55:35;30.52;;;21.30;;
12776;SDS011;6452;41.572;23.732;2023-02-15T01:58:05;35.78;;;21.20;;
12776;SDS011;6452;41.572;23.732;2023-02-15T02:00:33;30.15;;;19.77;;
12776;SDS011;6452;41.572;23.732;2023-02-15T02:03:00;31.95;;;21.15;;
12776;SDS011;6452;41.572;23.732;2023-02-15T02:05:27;26.35;;;19.25;;
12776;SDS011;6452;41.572;23.732;2023-02-15T02:07:54;27.92;;;20.00;;
12776;SDS011;6452;41.572;23.732;2023-02-15T02:10:27;27.10;;;19.60;;
12776;SDS011;6452;41.572;23.732;2023-02-15T02:12:55;25.60;;;18.05;;
12776;SDS011;6452;41.572;23.732;2023-02-15T02:15:33;28.00;;;19.27;;
12776;SDS011;6452;41.572;23.732;2023-02-15T02:18:31;28.63;;;19.13;;
12776;SDS011;6452;41.572;23.732;2023-02-15T02:27:33;26.00;;;18.02;;
12776;SDS011;6452;41.572;23.732;2023-02-15T02:30:16;28.00;;;16.60;;
12776;SDS011;6452;41.572;23.732;2023-02-15T02:35:45;26.63;;;17.98;;
12776;SDS011;6452;41.572;23.732;2023-02-15T02:41:31;34.38;;;23.30;;
12776;SDS011;6452;41.572;23.732;2023-02-15T02:49:30;34.58;;;22.95;;
12776;SDS011;6452;41.572;23.732;2023-02-15T02:52:00;33.78;;;23.00;;
12776;SDS011;6452;41.572;23.732;2023-02-15T02:54:29;31.73;;;21.45;;
12776;SDS011;6452;41.572;23.732;2023-02-15T02:56:56;29.40;;;20.48;;
12776;SDS011;6452;41.572;23.732;2023-02-15T02:59:28;32.05;;;19.20;;
12776;SDS011;6452;41.572;23.732;2023-02-15T03:02:05;23.75;;;16.92;;
12776;SDS011;6452;41.572;23.732;2023-02-15T03:04:39;25.85;;;18.63;;
12776;SDS011;6452;41.572;23.732;2023-02-15T03:07:12;25.40;;;16.75;;
12776;SDS011;6452;41.572;23.732;2023-02-15T03:09:53;22.88;;;16.30;;
12776;SDS011;6452;41.572;23.732;2023-02-15T03:12:33;26.30;;;17.75;;
12776;SDS011;6452;41.572;23.732;2023-02-15T03:17:41;24.80;;;17.70;;
12776;SDS011;6452;41.572;23.732;2023-02-15T03:20:12;26.95;;;17.98;;
12776;SDS011;6452;41.572;23.732;2023-02-15T03:22:46;29.98;;;18.70;;
12776;SDS011;6452;41.572;23.732;2023-02-15T03:25:23;25.98;;;16.27;;
12776;SDS011;6452;41.572;23.732;2023-02-15T03:27:54;28.55;;;18.25;;
12776;SDS011;6452;41.572;23.732;2023-02-15T03:30:24;29.50;;;19.02;;
12776;SDS011;6452;41.572;23.732;2023-02-15T03:32:56;31.73;;;19.65;;
12776;SDS011;6452;41.572;23.732;2023-02-15T03:35:25;29.45;;;18.63;;
12776;SDS011;6452;41.572;23.732;2023-02-15T03:38:01;29.35;;;19.25;;
12776;SDS011;6452;41.572;23.732;2023-02-15T03:40:37;25.95;;;16.90;;
12776;SDS011;6452;41.572;23.732;2023-02-15T03:46:06;21.77;;;15.52;;
12776;SDS011;6452;41.572;23.732;2023-02-15T03:48:40;21.50;;;15.85;;
12776;SDS011;6452;41.572;23.732;2023-02-15T03:51:20;23.83;;;15.98;;
12776;SDS011;6452;41.572;23.732;2023-02-15T03:54:03;20.92;;;14.75;;
12776;SDS011;6452;41.572;23.732;2023-02-15T03:56:34;20.55;;;14.75;;
12776;SDS011;6452;41.572;23.732;2023-02-15T03:59:03;27.00;;;17.77;;
12776;SDS011;6452;41.572;23.732;2023-02-15T04:04:42;26.33;;;17.60;;
12776;SDS011;6452;41.572;23.732;2023-02-15T04:07:11;25.80;;;17.02;;
12776;SDS011;6452;41.572;23.732;2023-02-15T04:09:38;24.77;;;16.85;;
12776;SDS011;6452;41.572;23.732;2023-02-15T04:12:22;26.45;;;17.45;;
12776;SDS011;6452;41.572;23.732;2023-02-15T04:14:48;24.33;;;16.75;;
12776;SDS011;6452;41.572;23.732;2023-02-15T04:17:33;25.05;;;17.50;;
12776;SDS011;6452;41.572;23.732;2023-02-15T04:20:03;27.23;;;17.55;;
12776;SDS011;6452;41.572;23.732;2023-02-15T04:22:47;30.48;;;19.15;;
12776;SDS011;6452;41.572;23.732;2023-02-15T04:25:31;56.05;;;33.70;;
12776;SDS011;6452;41.572;23.732;2023-02-15T04:27:58;45.05;;;28.80;;
12776;SDS011;6452;41.572;23.732;2023-02-15T04:30:25;40.63;;;24.70;;
12776;SDS011;6452;41.572;23.732;2023-02-15T04:32:53;37.80;;;23.95;;
12776;SDS011;6452;41.572;23.732;2023-02-15T04:35:19;38.28;;;26.05;;
12776;SDS011;6452;41.572;23.732;2023-02-15T04:37:46;43.70;;;26.83;;
12776;SDS011;6452;41.572;23.732;2023-02-15T04:40:13;45.30;;;29.48;;
12776;SDS011;6452;41.572;23.732;2023-02-15T04:42:40;53.83;;;31.58;;
12776;SDS011;6452;41.572;23.732;2023-02-15T04:45:06;45.83;;;29.38;;
12776;SDS011;6452;41.572;23.732;2023-02-15T04:47:33;48.13;;;30.08;;
12776;SDS011;6452;41.572;23.732;2023-02-15T04:49:59;46.50;;;27.50;;
12776;SDS011;6452;41.572;23.732;2023-02-15T04:52:26;48.35;;;28.42;;
12776;SDS011;6452;41.572;23.732;2023-02-15T04:54:52;44.50;;;26.38;;
12776;SDS011;6452;41.572;23.732;2023-02-15T04:57:19;36.25;;;24.50;;
12776;SDS011;6452;41.572;23.732;2023-02-15T04:59:46;50.17;;;27.60;;
12776;SDS011;6452;41.572;23.732;2023-02-15T05:02:12;46.65;;;29.17;;
12776;SDS011;6452;41.572;23.732;2023-02-15T05:04:39;48.33;;;29.23;;
12776;SDS011;6452;41.572;23.732;2023-02-15T05:07:05;44.55;;;28.60;;
12776;SDS011;6452;41.572;23.732;2023-02-15T05:09:32;36.03;;;24.25;;
12776;SDS011;6452;41.572;23.732;2023-02-15T05:11:59;35.15;;;22.58;;
12776;SDS011;6452;41.572;23.732;2023-02-15T05:14:25;35.60;;;23.35;;
12776;SDS011;6452;41.572;23.732;2023-02-15T05:16:51;38.25;;;24.65;;
12776;SDS011;6452;41.572;23.732;2023-02-15T05:19:19;36.35;;;24.40;;
12776;SDS011;6452;41.572;23.732;2023-02-15T05:21:45;41.70;;;26.92;;
12776;SDS011;6452;41.572;23.732;2023-02-15T05:24:12;36.17;;;24.63;;
12776;SDS011;6452;41.572;23.732;2023-02-15T05:26:57;40.85;;;28.38;;
12776;SDS011;6452;41.572;23.732;2023-02-15T05:29:42;34.13;;;22.07;;
12776;SDS011;6452;41.572;23.732;2023-02-15T05:32:08;34.50;;;22.93;;
12776;SDS011;6452;41.572;23.732;2023-02-15T05:34:35;33.40;;;24.30;;
12776;SDS011;6452;41.572;23.732;2023-02-15T05:37:02;38.10;;;24.97;;
12776;SDS011;6452;41.572;23.732;2023-02-15T05:39:29;39.20;;;25.43;;
12776;SDS011;6452;41.572;23.732;2023-02-15T05:41:58;37.35;;;25.42;;
12776;SDS011;6452;41.572;23.732;2023-02-15T05:44:25;52.13;;;33.27;;
12776;SDS011;6452;41.572;23.732;2023-02-15T05:46:52;80.53;;;46.10;;
12776;SDS011;6452;41.572;23.732;2023-02-15T05:49:19;83.13;;;48.70;;
12776;SDS011;6452;41.572;23.732;2023-02-15T05:51:46;76.10;;;47.70;;
12776;SDS011;6452;41.572;23.732;2023-02-15T05:54:12;88.32;;;49.83;;
12776;SDS011;6452;41.572;23.732;2023-02-15T05:56:39;71.53;;;43.83;;
12776;SDS011;6452;41.572;23.732;2023-02-15T05:59:06;64.82;;;42.17;;
12776;SDS011;6452;41.572;23.732;2023-02-15T06:01:33;70.88;;;46.08;;
12776;SDS011;6452;41.572;23.732;2023-02-15T06:03:59;73.93;;;45.05;;
12776;SDS011;6452;41.572;23.732;2023-02-15T06:06:29;105.07;;;51.30;;
12776;SDS011;6452;41.572;23.732;2023-02-15T06:08:55;101.32;;;50.20;;
12776;SDS011;6452;41.572;23.732;2023-02-15T06:11:26;98.05;;;50.65;;
12776;SDS011;6452;41.572;23.732;2023-02-15T06:13:54;87.35;;;48.75;;
12776;SDS011;6452;41.572;23.732;2023-02-15T06:16:20;73.20;;;43.80;;
12776;SDS011;6452;41.572;23.732;2023-02-15T06:18:47;67.32;;;42.05;;
12776;SDS011;6452;41.572;23.732;2023-02-15T06:21:14;68.05;;;41.30;;
12776;SDS011;6452;41.572;23.732;2023-02-15T06:23:41;68.95;;;42.95;;
12776;SDS011;6452;41.572;23.732;2023-02-15T06:26:08;68.50;;;42.47;;
12776;SDS011;6452;41.572;23.732;2023-02-15T06:28:34;89.07;;;50.70;;
12776;SDS011;6452;41.572;23.732;2023-02-15T06:31:02;120.20;;;66.80;;
12776;SDS011;6452;41.572;23.732;2023-02-15T06:33:29;152.85;;;86.60;;
12776;SDS011;6452;41.572;23.732;2023-02-15T06:35:56;191.23;;;115.63;;
12776;SDS011;6452;41.572;23.732;2023-02-15T06:38:22;143.77;;;88.70;;
12776;SDS011;6452;41.572;23.732;2023-02-15T06:40:49;142.68;;;85.18;;
12776;SDS011;6452;41.572;23.732;2023-02-15T06:43:15;86.18;;;54.63;;
12776;SDS011;6452;41.572;23.732;2023-02-15T06:45:42;77.00;;;50.67;;
12776;SDS011;6452;41.572;23.732;2023-02-15T06:48:08;85.28;;;54.30;;
12776;SDS011;6452;41.572;23.732;2023-02-15T06:50:36;57.47;;;38.33;;
12776;SDS011;6452;41.572;23.732;2023-02-15T06:53:06;47.28;;;32.22;;
12776;SDS011;6452;41.572;23.732;2023-02-15T06:55:32;54.22;;;38.05;;
12776;SDS011;6452;41.572;23.732;2023-02-15T06:57:59;50.40;;;35.63;;
12776;SDS011;6452;41.572;23.732;2023-02-15T07:00:26;49.50;;;33.15;;
12776;SDS011;6452;41.572;23.732;2023-02-15T07:02:53;54.67;;;37.60;;
12776;SDS011;6452;41.572;23.732;2023-02-15T07:05:23;50.00;;;34.53;;
12776;SDS011;6452;41.572;23.732;2023-02-15T07:07:50;48.55;;;31.77;;
12776;SDS011;6452;41.572;23.732;2023-02-15T07:10:16;42.22;;;29.27;;
12776;SDS011;6452;41.572;23.732;2023-02-15T07:12:42;37.72;;;26.50;;
12776;SDS011;6452;41.572;23.732;2023-02-15T07:15:10;35.17;;;25.92;;
12776;SDS011;6452;41.572;23.732;2023-02-15T07:17:39;38.95;;;25.35;;
12776;SDS011;6452;41.572;23.732;2023-02-15T07:20:09;31.10;;;22.23;;
12776;SDS011;6452;41.572;23.732;2023-02-15T07:22:37;37.92;;;28.80;;
12776;SDS011;6452;41.572;23.732;2023-02-15T07:25:04;40.42;;;29.23;;
12776;SDS011;6452;41.572;23.732;2023-02-15T07:27:33;40.85;;;29.50;;
12776;SDS011;6452;41.572;23.732;2023-02-15T07:30:00;34.85;;;26.08;;
12776;SDS011;6452;41.572;23.732;2023-02-15T07:32:27;27.98;;;21.38;;
12776;SDS011;6452;41.572;23.732;2023-02-15T07:34:55;32.58;;;24.27;;
12776;SDS011;6452;41.572;23.732;2023-02-15T07:37:26;31.33;;;23.60;;
12776;SDS011;6452;41.572;23.732;2023-02-15T07:39:54;31.48;;;23.63;;
12776;SDS011;6452;41.572;23.732;2023-02-15T07:42:24;32.58;;;24.58;;
12776;SDS011;6452;41.572;23.732;2023-02-15T07:44:51;35.60;;;26.20;;
12776;SDS011;6452;41.572;23.732;2023-02-15T07:47:18;35.70;;;26.15;;
12776;SDS011;6452;41.572;23.732;2023-02-15T07:49:44;70.13;;;42.30;;
12776;SDS011;6452;41.572;23.732;2023-02-15T07:52:11;31.27;;;26.17;;
12776;SDS011;6452;41.572;23.732;2023-02-15T07:54:41;32.60;;;25.42;;
12776;SDS011;6452;41.572;23.732;2023-02-15T07:57:08;31.23;;;24.08;;
12776;SDS011;6452;41.572;23.732;2023-02-15T07:59:35;33.58;;;24.90;;
12776;SDS011;6452;41.572;23.732;2023-02-15T08:02:02;35.42;;;25.23;;
12776;SDS011;6452;41.572;23.732;2023-02-15T08:04:33;31.13;;;23.30;;
12776;SDS011;6452;41.572;23.732;2023-02-15T08:07:04;32.13;;;25.05;;
12776;SDS011;6452;41.572;23.732;2023-02-15T08:09:35;30.70;;;23.58;;
12776;SDS011;6452;41.572;23.732;2023-02-15T08:12:02;30.73;;;22.63;;
12776;SDS011;6452;41.572;23.732;2023-02-15T08:14:30;28.75;;;21.90;;
12776;SDS011;6452;41.572;23.732;2023-02-15T08:16:59;28.38;;;22.17;;
12776;SDS011;6452;41.572;23.732;2023-02-15T08:19:29;30.98;;;23.70;;
12776;SDS011;6452;41.572;23.732;2023-02-15T08:21:58;25.27;;;20.75;;
12776;SDS011;6452;41.572;23.732;2023-02-15T08:24:31;26.38;;;19.55;;
12776;SDS011;6452;41.572;23.732;2023-02-15T08:27:02;24.60;;;19.52;;
12776;SDS011;6452;41.572;23.732;2023-02-15T08:29:30;25.55;;;19.92;;
12776;SDS011;6452;41.572;23.732;2023-02-15T08:32:01;21.75;;;19.00;;
12776;SDS011;6452;41.572;23.732;2023-02-15T08:34:35;25.50;;;19.02;;
12776;SDS011;6452;41.572;23.732;2023-02-15T08:37:05;25.10;;;19.48;;
12776;SDS011;6452;41.572;23.732;2023-02-15T08:39:31;24.10;;;19.48;;
12776;SDS011;6452;41.572;23.732;2023-02-15T08:41:58;27.65;;;20.08;;
12776;SDS011;6452;41.572;23.732;2023-02-15T08:44:28;24.25;;;19.55;;
12776;SDS011;6452;41.572;23.732;2023-02-15T08:46:55;23.73;;;19.88;;
12776;SDS011;6452;41.572;23.732;2023-02-15T08:49:28;24.58;;;19.38;;
12776;SDS011;6452;41.572;23.732;2023-02-15T08:51:56;24.42;;;20.92;;
12776;SDS011;6452;41.572;23.732;2023-02-15T08:54:27;28.08;;;21.77;;
12776;SDS011;6452;41.572;23.732;2023-02-15T08:56:58;25.83;;;19.88;;
12776;SDS011;6452;41.572;23.732;2023-02-15T08:59:28;19.17;;;16.02;;
12776;SDS011;6452;41.572;23.732;2023-02-15T09:01:55;19.02;;;16.65;;
12776;SDS011;6452;41.572;23.732;2023-02-15T09:04:22;18.35;;;15.90;;
12776;SDS011;6452;41.572;23.732;2023-02-15T09:06:49;19.02;;;16.42;;
12776;SDS011;6452;41.572;23.732;2023-02-15T09:09:16;23.02;;;18.45;;
12776;SDS011;6452;41.572;23.732;2023-02-15T09:11:44;19.25;;;15.98;;
12776;SDS011;6452;41.572;23.732;2023-02-15T09:14:17;21.15;;;16.75;;
12776;SDS011;6452;41.572;23.732;2023-02-15T09:16:49;17.95;;;15.75;;
12776;SDS011;6452;41.572;23.732;2023-02-15T09:19:17;19.45;;;16.83;;
12776;SDS011;6452;41.572;23.732;2023-02-15T09:21:46;20.85;;;18.58;;
12776;SDS011;6452;41.572;23.732;2023-02-15T09:24:14;24.33;;;18.58;;
12776;SDS011;6452;41.572;23.732;2023-02-15T09:26:41;19.95;;;17.85;;
12776;SDS011;6452;41.572;23.732;2023-02-15T09:29:09;22.65;;;19.00;;
12776;SDS011;6452;41.572;23.732;2023-02-15T09:31:37;20.77;;;18.63;;
12776;SDS011;6452;41.572;23.732;2023-02-15T09:34:23;33.15;;;17.65;;
12776;SDS011;6452;41.572;23.732;2023-02-15T09:36:50;25.52;;;21.30;;
12776;SDS011;6452;41.572;23.732;2023-02-15T09:39:23;21.65;;;18.52;;
12776;SDS011;6452;41.572;23.732;2023-02-15T10:00:44;18.02;;;15.32;;
12776;SDS011;6452;41.572;23.732;2023-02-15T10:09:02;15.73;;;14.00;;
12776;SDS011;6452;41.572;23.732;2023-02-15T10:11:43;14.52;;;13.07;;
12776;SDS011;6452;41.572;23.732;2023-02-15T10:14:26;14.02;;;12.63;;
12776;SDS011;6452;41.572;23.732;2023-02-15T10:20:20;11.60;;;10.38;;
12776;SDS011;6452;41.572;23.732;2023-02-15T10:28:18;14.45;;;13.05;;
12776;SDS011;6452;41.572;23.732;2023-02-15T10:30:50;15.20;;;13.07;;
12776;SDS011;6452;41.572;23.732;2023-02-15T10:41:22;13.10;;;9.32;;
12776;SDS011;6452;41.572;23.732;2023-02-15T10:55:14;14.45;;;9.35;;
12776;SDS011;6452;41.572;23.732;2023-02-15T10:58:00;9.98;;;9.15;;
12776;SDS011;6452;41.572;23.732;2023-02-15T11:00:37;10.98;;;9.88;;
12776;SDS011;6452;41.572;23.732;2023-02-15T11:08:40;10.40;;;9.50;;
12776;SDS011;6452;41.572;23.732;2023-02-15T11:11:11;10.60;;;9.60;;
12776;SDS011;6452;41.572;23.732;2023-02-15T11:13:48;10.70;;;9.60;;
12776;SDS011;6452;41.572;23.732;2023-02-15T11:16:38;11.15;;;10.05;;
12776;SDS011;6452;41.572;23.732;2023-02-15T11:19:37;11.43;;;10.27;;
12776;SDS011;6452;41.572;23.732;2023-02-15T11:22:09;10.50;;;9.50;;
12776;SDS011;6452;41.572;23.732;2023-02-15T11:24:40;10.55;;;9.65;;
12776;SDS011;6452;41.572;23.732;2023-02-15T11:30:04;14.75;;;13.25;;
12776;SDS011;6452;41.572;23.732;2023-02-15T11:32:40;13.82;;;12.25;;
12776;SDS011;6452;41.572;23.732;2023-02-15T11:40:35;13.00;;;10.32;;
12776;SDS011;6452;41.572;23.732;2023-02-15T11:43:06;12.13;;;11.02;;
12776;SDS011;6452;41.572;23.732;2023-02-15T11:45:41;12.23;;;11.13;;
12776;SDS011;6452;41.572;23.732;2023-02-15T11:48:14;11.43;;;10.43;;
12776;SDS011;6452;41.572;23.732;2023-02-15T11:50:41;12.23;;;10.98;;
12776;SDS011;6452;41.572;23.732;2023-02-15T11:53:15;11.52;;;10.52;;
12776;SDS011;6452;41.572;23.732;2023-02-15T11:55:47;10.98;;;10.02;;
12776;SDS011;6452;41.572;23.732;2023-02-15T11:58:21;11.60;;;10.57;;
12776;SDS011;6452;41.572;23.732;2023-02-15T12:00:57;18.40;;;12.07;;
12776;SDS011;6452;41.572;23.732;2023-02-15T12:03:43;13.48;;;12.10;;
12776;SDS011;6452;41.572;23.732;2023-02-15T12:14:56;12.90;;;11.57;;
12776;SDS011;6452;41.572;23.732;2023-02-15T12:17:32;12.70;;;11.43;;
12776;SDS011;6452;41.572;23.732;2023-02-15T12:20:02;13.48;;;12.18;;
12776;SDS011;6452;41.572;23.732;2023-02-15T12:22:50;12.13;;;11.00;;
12776;SDS011;6452;41.572;23.732;2023-02-15T12:25:55;13.32;;;12.02;;
12776;SDS011;6452;41.572;23.732;2023-02-15T12:30:57;12.88;;;11.57;;
12776;SDS011;6452;41.572;23.732;2023-02-15T12:33:39;13.40;;;12.02;;
12776;SDS011;6452;41.572;23.732;2023-02-15T12:38:40;14.63;;;13.23;;
12776;SDS011;6452;41.572;23.732;2023-02-15T12:41:24;12.20;;;11.10;;
12776;SDS011;6452;41.572;23.732;2023-02-15T12:44:05;12.70;;;11.50;;
12776;SDS011;6452;41.572;23.732;2023-02-15T12:46:55;13.23;;;12.02;;
12776;SDS011;6452;41.572;23.732;2023-02-15T12:49:27;13.60;;;12.40;;
12776;SDS011;6452;41.572;23.732;2023-02-15T12:51:55;17.63;;;15.93;;
12776;SDS011;6452;41.572;23.732;2023-02-15T12:57:04;12.27;;;11.07;;
12776;SDS011;6452;41.572;23.732;2023-02-15T12:59:56;12.68;;;11.55;;
12776;SDS011;6452;41.572;23.732;2023-02-15T13:02:47;13.05;;;11.75;;
12776;SDS011;6452;41.572;23.732;2023-02-15T13:10:57;14.02;;;12.63;;
12776;SDS011;6452;41.572;23.732;2023-02-15T13:13:33;16.23;;;14.55;;
12776;SDS011;6452;41.572;23.732;2023-02-15T13:16:17;16.20;;;14.50;;
12776;SDS011;6452;41.572;23.732;2023-02-15T13:18:53;11.85;;;10.68;;
12776;SDS011;6452;41.572;23.732;2023-02-15T13:21:27;13.60;;;12.32;;
12776;SDS011;6452;41.572;23.732;2023-02-15T13:24:02;15.13;;;13.80;;
12776;SDS011;6452;41.572;23.732;2023-02-15T13:26:50;12.85;;;11.82;;
12776;SDS011;6452;41.572;23.732;2023-02-15T13:29:25;12.40;;;11.40;;
12776;SDS011;6452;41.572;23.732;2023-02-15T13:31:57;14.80;;;13.30;;
12776;SDS011;6452;41.572;23.732;2023-02-15T13:34:36;11.55;;;10.57;;
12776;SDS011;6452;41.572;23.732;2023-02-15T13:37:06;11.40;;;10.40;;
12776;SDS011;6452;41.572;23.732;2023-02-15T13:42:36;10.75;;;9.85;;
12776;SDS011;6452;41.572;23.732;2023-02-15T13:51:31;11.05;;;10.25;;
12776;SDS011;6452;41.572;23.732;2023-02-15T14:16:09;11.10;;;10.20;;
12776;SDS011;6452;41.572;23.732;2023-02-15T14:18:51;11.45;;;10.52;;
12776;SDS011;6452;41.572;23.732;2023-02-15T14:26:59;13.18;;;12.10;;
12776;SDS011;6452;41.572;23.732;2023-02-15T14:35:31;15.88;;;14.38;;
12776;SDS011;6452;41.572;23.732;2023-02-15T14:43:49;26.33;;;23.92;;
12776;SDS011;6452;41.572;23.732;2023-02-15T14:49:24;31.27;;;27.90;;
12776;SDS011;6452;41.572;23.732;2023-02-15T14:52:11;29.42;;;26.73;;
12776;SDS011;6452;41.572;23.732;2023-02-15T14:55:24;32.10;;;29.02;;
12776;SDS011;6452;41.572;23.732;2023-02-15T14:58:22;30.80;;;27.48;;
12776;SDS011;6452;41.572;23.732;2023-02-15T15:01:26;34.30;;;30.58;;
12776;SDS011;6452;41.572;23.732;2023-02-15T15:07:28;46.40;;;39.30;;
12776;SDS011;6452;41.572;23.732;2023-02-15T15:10:23;48.38;;;42.15;;
12776;SDS011;6452;41.572;23.732;2023-02-15T15:12:56;51.13;;;43.10;;
12776;SDS011;6452;41.572;23.732;2023-02-15T15:15:45;47.03;;;38.45;;
12776;SDS011;6452;41.572;23.732;2023-02-15T15:18:42;42.15;;;31.65;;
12776;SDS011;6452;41.572;23.732;2023-02-15T15:21:34;43.17;;;33.42;;
12776;SDS011;6452;41.572;23.732;2023-02-15T15:49:54;38.38;;;26.40;;
12776;SDS011;6452;41.572;23.732;2023-02-15T15:52:23;37.25;;;28.90;;
12776;SDS011;6452;41.572;23.732;2023-02-15T15:54:52;40.08;;;31.42;;
12776;SDS011;6452;41.572;23.732;2023-02-15T16:00:00;49.88;;;37.05;;
12776;SDS011;6452;41.572;23.732;2023-02-15T16:02:27;54.92;;;38.75;;
12776;SDS011;6452;41.572;23.732;2023-02-15T16:04:54;61.75;;;44.60;;
12776;SDS011;6452;41.572;23.732;2023-02-15T16:07:31;55.10;;;40.28;;
12776;SDS011;6452;41.572;23.732;2023-02-15T16:10:02;50.35;;;36.38;;
12776;SDS011;6452;41.572;23.732;2023-02-15T16:12:31;37.95;;;29.60;;
12776;SDS011;6452;41.572;23.732;2023-02-15T16:15:01;35.35;;;27.20;;
12776;SDS011;6452;41.572;23.732;2023-02-15T16:17:50;48.03;;;30.23;;
12776;SDS011;6452;41.572;23.732;2023-02-15T16:20:26;42.85;;;30.48;;
12776;SDS011;6452;41.572;23.732;2023-02-15T16:28:21;37.72;;;29.33;;
12776;SDS011;6452;41.572;23.732;2023-02-15T16:30:54;36.30;;;26.35;;
12776;SDS011;6452;41.572;23.732;2023-02-15T16:33:37;33.85;;;26.52;;
12776;SDS011;6452;41.572;23.732;2023-02-15T16:36:24;34.80;;;26.33;;
12776;SDS011;6452;41.572;23.732;2023-02-15T16:41:29;41.25;;;28.70;;
12776;SDS011;6452;41.572;23.732;2023-02-15T16:44:00;47.65;;;34.72;;
12776;SDS011;6452;41.572;23.732;2023-02-15T16:46:33;53.47;;;36.40;;
12776;SDS011;6452;41.572;23.732;2023-02-15T16:49:07;57.97;;;39.75;;
12776;SDS011;6452;41.572;23.732;2023-02-15T16:51:41;47.88;;;30.08;;
12776;SDS011;6452;41.572;23.732;2023-02-15T16:54:14;29.27;;;22.65;;
12776;SDS011;6452;41.572;23.732;2023-02-15T16:56:45;31.45;;;22.10;;
12776;SDS011;6452;41.572;23.732;2023-02-15T17:02:16;33.28;;;22.27;;
12776;SDS011;6452;41.572;23.732;2023-02-15T17:04:44;40.95;;;27.45;;
12776;SDS011;6452;41.572;23.732;2023-02-15T17:07:19;58.40;;;39.80;;
12776;SDS011;6452;41.572;23.732;2023-02-15T17:09:49;82.22;;;53.38;;
12776;SDS011;6452;41.572;23.732;2023-02-15T17:20:47;118.00;;;73.43;;
12776;SDS011;6452;41.572;23.732;2023-02-15T17:25:57;101.75;;;63.30;;
12776;SDS011;6452;41.572;23.732;2023-02-15T17:28:26;74.43;;;50.15;;
12776;SDS011;6452;41.572;23.732;2023-02-15T17:30:56;80.20;;;51.90;;
12776;SDS011;6452;41.572;23.732;2023-02-15T17:36:32;88.28;;;54.97;;
12776;SDS011;6452;41.572;23.732;2023-02-15T17:41:24;87.07;;;53.45;;
12776;SDS011;6452;41.572;23.732;2023-02-15T17:43:50;87.95;;;54.05;;
12776;SDS011;6452;41.572;23.732;2023-02-15T17:46:17;79.90;;;51.00;;
12776;SDS011;6452;41.572;23.732;2023-02-15T17:48:49;76.38;;;46.85;;
12776;SDS011;6452;41.572;23.732;2023-02-15T17:51:17;68.05;;;45.78;;
12776;SDS011;6452;41.572;23.732;2023-02-15T17:53:49;61.88;;;41.70;;
12776;SDS011;6452;41.572;23.732;2023-02-15T17:56:34;59.17;;;38.17;;
12776;SDS011;6452;41.572;23.732;2023-02-15T17:59:05;59.65;;;39.22;;
12776;SDS011;6452;41.572;23.732;2023-02-15T18:01:36;63.28;;;40.00;;
12776;SDS011;6452;41.572;23.732;2023-02-15T18:04:26;47.88;;;33.40;;
12776;SDS011;6452;41.572;23.732;2023-02-15T18:07:11;42.13;;;28.83;;
12776;SDS011;6452;41.572;23.732;2023-02-15T18:09:56;41.10;;;28.45;;
12776;SDS011;6452;41.572;23.732;2023-02-15T18:12:41;43.40;;;29.67;;
12776;SDS011;6452;41.572;23.732;2023-02-15T18:15:08;45.08;;;32.03;;
12776;SDS011;6452;41.572;23.732;2023-02-15T18:17:43;46.20;;;30.85;;
12776;SDS011;6452;41.572;23.732;2023-02-15T18:22:43;42.53;;;31.38;;
12776;SDS011;6452;41.572;23.732;2023-02-15T18:25:15;58.28;;;37.88;;
12776;SDS011;6452;41.572;23.732;2023-02-15T18:27:41;51.70;;;34.10;;
12776;SDS011;6452;41.572;23.732;2023-02-15T18:30:11;51.22;;;34.42;;
12776;SDS011;6452;41.572;23.732;2023-02-15T18:32:38;47.50;;;33.63;;
12776;SDS011;6452;41.572;23.732;2023-02-15T18:35:05;47.38;;;32.75;;
12776;SDS011;6452;41.572;23.732;2023-02-15T18:37:32;43.55;;;30.95;;
12776;SDS011;6452;41.572;23.732;2023-02-15T18:39:59;43.03;;;30.40;;
12776;SDS011;6452;41.572;23.732;2023-02-15T18:42:29;38.40;;;28.02;;
12776;SDS011;6452;41.572;23.732;2023-02-15T18:44:59;39.75;;;28.00;;
12776;SDS011;6452;41.572;23.732;2023-02-15T18:47:31;42.80;;;28.58;;